Alamillo, New Mexico
Current Conditions -  °F | °C
As of 7:35 PM on Sunday 23 Nov 2014 (Local Time) from KONM Reporting Station
Clear Clear  
Wind Chill: 36°   Ceiling: Unl
Heat Index: 43°   Visibility: 10mi
Dew Point:   Wind: 14mph
Humidity: 17%   Direction: 340°NNW
Pressure: 30.01"   Gusts: 32mph
Location:  34.262°N, 106.87°W
Report Text: KONM 240235Z AUTO 34012G28KT 10SM CLR 06/M17 A3001 RMK AO2 T00631175
Loading
Personal Weather Stations






























Interactive Weather Map New forecast layout! Learn more

10-Day Weather Forecast

Advertisements
Track Severe Weather on mobile